sensor_id;sensor_type;location;lat;lon;timestamp;pressure;altitude;pressure_sealevel;temperature;humidity
33404;BME280;19751;40.274;18.268;2022-10-30T00:00:03;101741.47;;;17.51;100.00
33404;BME280;19751;40.274;18.268;2022-10-30T00:02:29;101742.53;;;17.50;100.00
33404;BME280;19751;40.274;18.268;2022-10-30T00:04:54;101738.09;;;17.49;100.00
33404;BME280;19751;40.274;18.268;2022-10-30T00:07:20;101742.09;;;17.47;100.00
33404;BME280;19751;40.274;18.268;2022-10-30T00:09:45;101726.19;;;17.44;100.00
33404;BME280;19751;40.274;18.268;2022-10-30T00:12:11;101729.31;;;17.40;100.00
33404;BME280;19751;40.274;18.268;2022-10-30T00:14:36;101729.72;;;17.37;100.00
33404;BME280;19751;40.274;18.268;2022-10-30T00:17:01;101728.06;;;17.36;100.00
33404;BME280;19751;40.274;18.268;2022-10-30T00:19:27;101723.44;;;17.37;100.00
33404;BME280;19751;40.274;18.268;2022-10-30T00:21:52;101724.28;;;17.37;100.00
33404;BME280;19751;40.274;18.268;2022-10-30T00:24:18;101720.53;;;17.38;100.00
33404;BME280;19751;40.274;18.268;2022-10-30T00:26:44;101718.22;;;17.42;100.00
33404;BME280;19751;40.274;18.268;2022-10-30T00:29:09;101718.41;;;17.40;100.00
33404;BME280;19751;40.274;18.268;2022-10-30T00:31:35;101717.59;;;17.40;100.00
33404;BME280;19751;40.274;18.268;2022-10-30T00:34:00;101716.75;;;17.39;100.00
33404;BME280;19751;40.274;18.268;2022-10-30T00:36:26;101720.53;;;17.38;100.00
33404;BME280;19751;40.274;18.268;2022-10-30T00:38:51;101716.75;;;17.39;100.00
33404;BME280;19751;40.274;18.268;2022-10-30T00:41:22;101722.19;;;17.39;100.00
33404;BME280;19751;40.274;18.268;2022-10-30T00:43:48;101720.53;;;17.38;100.00
33404;BME280;19751;40.274;18.268;2022-10-30T00:48:51;101709.00;;;17.36;100.00
33404;BME280;19751;40.274;18.268;2022-10-30T00:51:19;101714.66;;;17.35;100.00
33404;BME280;19751;40.274;18.268;2022-10-30T00:53:45;101715.50;;;17.35;100.00
33404;BME280;19751;40.274;18.268;2022-10-30T00:56:15;101710.47;;;17.32;100.00
33404;BME280;19751;40.274;18.268;2022-10-30T00:58:47;101706.69;;;17.33;100.00
33404;BME280;19751;40.274;18.268;2022-10-30T01:01:18;101710.06;;;17.35;100.00
33404;BME280;19751;40.274;18.268;2022-10-30T01:03:49;101702.72;;;17.36;100.00
33404;BME280;19751;40.274;18.268;2022-10-30T01:06:16;101698.75;;;17.32;100.00
33404;BME280;19751;40.274;18.268;2022-10-30T01:08:42;101696.25;;;17.30;100.00
33404;BME280;19751;40.274;18.268;2022-10-30T01:11:08;101689.75;;;17.31;100.00
33404;BME280;19751;40.274;18.268;2022-10-30T01:13:35;101692.25;;;17.33;100.00
33404;BME280;19751;40.274;18.268;2022-10-30T01:22:01;101685.75;;;17.34;100.00
33404;BME280;19751;40.274;18.268;2022-10-30T01:24:57;101684.91;;;17.33;100.00
33404;BME280;19751;40.274;18.268;2022-10-30T01:30:46;101681.97;;;17.28;100.00
33404;BME280;19751;40.274;18.268;2022-10-30T01:37:02;101680.53;;;17.26;100.00
33404;BME280;19751;40.274;18.268;2022-10-30T01:39:35;101674.88;;;17.27;100.00
33404;BME280;19751;40.274;18.268;2022-10-30T01:42:41;101673.81;;;17.28;100.00
33404;BME280;19751;40.274;18.268;2022-10-30T01:45:12;101671.09;;;17.28;100.00
33404;BME280;19751;40.274;18.268;2022-10-30T01:48:17;101675.50;;;17.29;100.00
33404;BME280;19751;40.274;18.268;2022-10-30T01:50:56;101673.63;;;17.30;100.00
33404;BME280;19751;40.274;18.268;2022-10-30T01:59:03;101668.16;;;17.23;100.00
33404;BME280;19751;40.274;18.268;2022-10-30T02:01:33;101669.22;;;17.22;100.00
33404;BME280;19751;40.274;18.268;2022-10-30T02:04:01;101661.06;;;17.22;100.00
33404;BME280;19751;40.274;18.268;2022-10-30T02:06:28;101660.22;;;17.22;100.00
33404;BME280;19751;40.274;18.268;2022-10-30T02:08:54;101659.16;;;17.23;100.00
33404;BME280;19751;40.274;18.268;2022-10-30T02:11:21;101662.13;;;17.21;100.00
33404;BME280;19751;40.274;18.268;2022-10-30T02:13:48;101657.69;;;17.20;100.00
33404;BME280;19751;40.274;18.268;2022-10-30T02:16:15;101657.50;;;17.22;100.00
33404;BME280;19751;40.274;18.268;2022-10-30T02:18:40;101658.53;;;17.21;100.00
33404;BME280;19751;40.274;18.268;2022-10-30T02:21:06;101661.06;;;17.22;100.00
33404;BME280;19751;40.274;18.268;2022-10-30T02:23:34;101656.44;;;17.23;100.00
33404;BME280;19751;40.274;18.268;2022-10-30T02:25:59;101652.88;;;17.22;100.00
33404;BME280;19751;40.274;18.268;2022-10-30T02:28:25;101656.66;;;17.21;100.00
33404;BME280;19751;40.274;18.268;2022-10-30T02:30:50;101656.66;;;17.21;100.00
33404;BME280;19751;40.274;18.268;2022-10-30T02:33:16;101651.63;;;17.18;100.00
33404;BME280;19751;40.274;18.268;2022-10-30T02:35:41;101647.03;;;17.19;100.00
33404;BME280;19751;40.274;18.268;2022-10-30T02:38:07;101647.03;;;17.19;100.00
33404;BME280;19751;40.274;18.268;2022-10-30T02:40:32;101647.63;;;17.21;100.00
33404;BME280;19751;40.274;18.268;2022-10-30T02:42:58;101650.34;;;17.21;100.00
33404;BME280;19751;40.274;18.268;2022-10-30T02:45:24;101650.34;;;17.21;100.00
33404;BME280;19751;40.274;18.268;2022-10-30T02:47:49;101650.34;;;17.21;100.00
33404;BME280;19751;40.274;18.268;2022-10-30T02:50:15;101656.66;;;17.21;100.00
33404;BME280;19751;40.274;18.268;2022-10-30T02:52:40;101651.22;;;17.21;100.00
33404;BME280;19751;40.274;18.268;2022-10-30T02:55:06;101639.28;;;17.22;100.00
33404;BME280;19751;40.274;18.268;2022-10-30T02:57:32;101636.34;;;17.24;100.00
33404;BME280;19751;40.274;18.268;2022-10-30T02:59:58;101638.88;;;17.25;100.00
33404;BME280;19751;40.274;18.268;2022-10-30T03:02:23;101639.88;;;17.24;100.00
33404;BME280;19751;40.274;18.268;2022-10-30T03:04:53;101637.16;;;17.24;100.00
33404;BME280;19751;40.274;18.268;2022-10-30T03:07:18;101640.53;;;17.26;100.00
33404;BME280;19751;40.274;18.268;2022-10-30T03:09:44;101634.66;;;17.29;100.00
33404;BME280;19751;40.274;18.268;2022-10-30T03:12:09;101638.00;;;17.31;100.00
33404;BME280;19751;40.274;18.268;2022-10-30T03:14:35;101642.38;;;17.32;100.00
33404;BME280;19751;40.274;18.268;2022-10-30T03:17:00;101643.03;;;17.34;100.00
33404;BME280;19751;40.274;18.268;2022-10-30T03:19:26;101637.59;;;17.34;100.00
33404;BME280;19751;40.274;18.268;2022-10-30T03:21:52;101635.88;;;17.33;100.00
33404;BME280;19751;40.274;18.268;2022-10-30T03:24:18;101645.75;;;17.34;100.00
33404;BME280;19751;40.274;18.268;2022-10-30T03:26:43;101644.06;;;17.33;100.00
33404;BME280;19751;40.274;18.268;2022-10-30T03:29:09;101638.59;;;17.33;100.00
33404;BME280;19751;40.274;18.268;2022-10-30T03:31:35;101639.25;;;17.35;100.00
33404;BME280;19751;40.274;18.268;2022-10-30T03:34:00;101639.25;;;17.35;100.00
33404;BME280;19751;40.274;18.268;2022-10-30T03:36:26;101637.34;;;17.36;100.00
33404;BME280;19751;40.274;18.268;2022-10-30T03:38:52;101642.59;;;17.37;100.00
33404;BME280;19751;40.274;18.268;2022-10-30T03:41:17;101647.00;;;17.38;100.00
33404;BME280;19751;40.274;18.268;2022-10-30T03:43:43;101650.75;;;17.37;100.00
33404;BME280;19751;40.274;18.268;2022-10-30T03:46:08;101646.38;;;17.36;100.00
33404;BME280;19751;40.274;18.268;2022-10-30T03:48:35;101641.75;;;17.37;100.00
33404;BME280;19751;40.274;18.268;2022-10-30T03:51:01;101644.28;;;17.38;100.00
33404;BME280;19751;40.274;18.268;2022-10-30T03:53:27;101636.72;;;17.40;100.00
33404;BME280;19751;40.274;18.268;2022-10-30T03:55:57;101641.34;;;17.40;100.00
33404;BME280;19751;40.274;18.268;2022-10-30T03:58:23;101641.34;;;17.40;100.00
33404;BME280;19751;40.274;18.268;2022-10-30T04:00:49;101635.88;;;17.40;100.00
33404;BME280;19751;40.274;18.268;2022-10-30T04:03:15;101643.84;;;17.42;100.00
33404;BME280;19751;40.274;18.268;2022-10-30T04:05:40;101645.53;;;17.43;100.00
33404;BME280;19751;40.274;18.268;2022-10-30T04:08:10;101647.19;;;17.44;100.00
33404;BME280;19751;40.274;18.268;2022-10-30T04:10:44;101642.16;;;17.40;100.00
33404;BME280;19751;40.274;18.268;2022-10-30T04:13:10;101645.72;;;17.41;100.00
33404;BME280;19751;40.274;18.268;2022-10-30T04:15:37;101643.22;;;17.39;100.00
33404;BME280;19751;40.274;18.268;2022-10-30T04:18:02;101649.72;;;17.38;100.00
33404;BME280;19751;40.274;18.268;2022-10-30T04:20:29;101652.22;;;17.40;100.00
33404;BME280;19751;40.274;18.268;2022-10-30T04:23:03;101650.97;;;17.43;100.00
33404;BME280;19751;40.274;18.268;2022-10-30T04:25:29;101650.16;;;17.42;100.00
33404;BME280;19751;40.274;18.268;2022-10-30T04:27:55;101653.47;;;17.44;100.00
33404;BME280;19751;40.274;18.268;2022-10-30T04:30:21;101639.63;;;17.46;100.00
33404;BME280;19751;40.274;18.268;2022-10-30T04:32:53;101644.06;;;17.47;100.00
33404;BME280;19751;40.274;18.268;2022-10-30T04:35:22;101650.34;;;17.47;100.00
33404;BME280;19751;40.274;18.268;2022-10-30T04:37:52;101648.44;;;17.48;100.00
33404;BME280;19751;40.274;18.268;2022-10-30T04:40:18;101645.50;;;17.49;100.00
33404;BME280;19751;40.274;18.268;2022-10-30T04:42:46;101646.31;;;17.50;100.00
33404;BME280;19751;40.274;18.268;2022-10-30T04:45:11;101648.84;;;17.51;100.00
33404;BME280;19751;40.274;18.268;2022-10-30T04:47:37;101649.28;;;17.48;100.00
33404;BME280;19751;40.274;18.268;2022-10-30T04:50:03;101644.66;;;17.49;100.00
33404;BME280;19751;40.274;18.268;2022-10-30T04:52:28;101652.84;;;17.49;100.00
33404;BME280;19751;40.274;18.268;2022-10-30T04:54:54;101650.09;;;17.49;100.00
33404;BME280;19751;40.274;18.268;2022-10-30T04:57:19;101650.09;;;17.49;100.00
33404;BME280;19751;40.274;18.268;2022-10-30T04:59:45;101647.19;;;17.50;100.00
33404;BME280;19751;40.274;18.268;2022-10-30T05:02:10;101659.53;;;17.53;100.00
33404;BME280;19751;40.274;18.268;2022-10-30T05:04:36;101649.69;;;17.52;100.00
33404;BME280;19751;40.274;18.268;2022-10-30T05:07:01;101653.03;;;17.54;100.00
33404;BME280;19751;40.274;18.268;2022-10-30T05:09:28;101655.13;;;17.52;100.00
33404;BME280;19751;40.274;18.268;2022-10-30T05:11:54;101661.41;;;17.52;100.00
33404;BME280;19751;40.274;18.268;2022-10-30T05:14:19;101649.28;;;17.55;100.00
33404;BME280;19751;40.274;18.268;2022-10-30T05:16:45;101652.81;;;17.55;100.00
33404;BME280;19751;40.274;18.268;2022-10-30T05:19:10;101652.81;;;17.55;100.00
33404;BME280;19751;40.274;18.268;2022-10-30T05:21:35;101654.28;;;17.58;100.00
33404;BME280;19751;40.274;18.268;2022-10-30T05:24:01;101657.63;;;17.60;100.00
33404;BME280;19751;40.274;18.268;2022-10-30T05:26:27;101663.91;;;17.60;100.00
33404;BME280;19751;40.274;18.268;2022-10-30T05:28:52;101656.56;;;17.61;100.00
33404;BME280;19751;40.274;18.268;2022-10-30T05:31:18;101659.94;;;17.63;100.00
33404;BME280;19751;40.274;18.268;2022-10-30T05:33:43;101660.78;;;17.63;100.00
33404;BME280;19751;40.274;18.268;2022-10-30T05:36:08;101662.22;;;17.66;100.00
33404;BME280;19751;40.274;18.268;2022-10-30T05:38:34;101658.47;;;17.67;100.00
33404;BME280;19751;40.274;18.268;2022-10-30T05:40:59;101662.84;;;17.68;100.00
33404;BME280;19751;40.274;18.268;2022-10-30T05:43:25;101660.97;;;17.69;100.00
33404;BME280;19751;40.274;18.268;2022-10-30T05:45:50;101664.50;;;17.69;100.00
33404;BME280;19751;40.274;18.268;2022-10-30T05:48:16;101661.78;;;17.69;100.00
33404;BME280;19751;40.274;18.268;2022-10-30T05:50:41;101668.72;;;17.72;100.00
33404;BME280;19751;40.274;18.268;2022-10-30T05:53:08;101677.50;;;17.74;100.00
33404;BME280;19751;40.274;18.268;2022-10-30T05:55:34;101674.59;;;17.75;100.00
33404;BME280;19751;40.274;18.268;2022-10-30T05:58:03;101669.75;;;17.77;100.00
33404;BME280;19751;40.274;18.268;2022-10-30T06:00:33;101673.13;;;17.79;100.00
33404;BME280;19751;40.274;18.268;2022-10-30T06:03:04;101671.84;;;17.82;100.00
33404;BME280;19751;40.274;18.268;2022-10-30T06:05:33;101671.41;;;17.85;100.00
33404;BME280;19751;40.274;18.268;2022-10-30T06:07:58;101668.03;;;17.89;100.00
33404;BME280;19751;40.274;18.268;2022-10-30T06:10:25;101673.06;;;17.93;100.00
33404;BME280;19751;40.274;18.268;2022-10-30T06:13:01;101669.94;;;17.96;100.00
33404;BME280;19751;40.274;18.268;2022-10-30T06:15:28;101667.81;;;17.98;100.00
33404;BME280;19751;40.274;18.268;2022-10-30T06:17:55;101670.94;;;18.01;100.00
33404;BME280;19751;40.274;18.268;2022-10-30T06:20:23;101675.75;;;18.06;100.00
33404;BME280;19751;40.274;18.268;2022-10-30T06:23:04;101676.34;;;18.08;100.00
33404;BME280;19751;40.274;18.268;2022-10-30T06:25:32;101681.59;;;18.09;100.00
33404;BME280;19751;40.274;18.268;2022-10-30T06:27:58;101671.31;;;18.11;100.00
33404;BME280;19751;40.274;18.268;2022-10-30T06:30:25;101671.94;;;18.13;100.00
33404;BME280;19751;40.274;18.268;2022-10-30T06:32:57;101680.53;;;18.17;100.00
33404;BME280;19751;40.274;18.268;2022-10-30T06:35:23;101678.41;;;18.19;100.00
33404;BME280;19751;40.274;18.268;2022-10-30T06:37:49;101678.81;;;18.23;100.00
33404;BME280;19751;40.274;18.268;2022-10-30T06:40:16;101685.72;;;18.25;100.00
33404;BME280;19751;40.274;18.268;2022-10-30T06:42:46;101684.66;;;18.26;100.00
33404;BME280;19751;40.274;18.268;2022-10-30T06:45:13;101691.78;;;18.27;100.00
33404;BME280;19751;40.274;18.268;2022-10-30T06:47:40;101683.78;;;18.32;100.00
33404;BME280;19751;40.274;18.268;2022-10-30T06:50:07;101680.63;;;18.35;100.00
33404;BME280;19751;40.274;18.268;2022-10-30T06:52:33;101681.03;;;18.39;100.00
33404;BME280;19751;40.274;18.268;2022-10-30T06:54:59;101679.78;;;18.42;100.00
33404;BME280;19751;40.274;18.268;2022-10-30T06:57:25;101679.53;;;18.43;100.00
33404;BME280;19751;40.274;18.268;2022-10-30T06:59:50;101690.03;;;18.46;100.00
33404;BME280;19751;40.274;18.268;2022-10-30T07:02:17;101681.59;;;18.48;100.00
33404;BME280;19751;40.274;18.268;2022-10-30T07:04:42;101684.75;;;18.51;100.00
33404;BME280;19751;40.274;18.268;2022-10-30T07:07:10;101682.41;;;18.55;100.00
33404;BME280;19751;40.274;18.268;2022-10-30T07:09:36;101685.31;;;18.60;100.00
33404;BME280;19751;40.274;18.268;2022-10-30T07:12:01;101684.66;;;18.64;100.00
33404;BME280;19751;40.274;18.268;2022-10-30T07:14:27;101694.31;;;18.67;100.00
33404;BME280;19751;40.274;18.268;2022-10-30T07:16:55;101694.72;;;18.71;100.00
33404;BME280;19751;40.274;18.268;2022-10-30T07:19:22;101686.72;;;18.76;100.00
33404;BME280;19751;40.274;18.268;2022-10-30T07:21:47;101689.00;;;18.79;100.00
33404;BME280;19751;40.274;18.268;2022-10-30T07:24:13;101691.06;;;18.83;100.00
33404;BME280;19751;40.274;18.268;2022-10-30T07:26:40;101699.88;;;18.85;100.00
33404;BME280;19751;40.274;18.268;2022-10-30T07:29:06;101697.13;;;18.85;100.00
33404;BME280;19751;40.274;18.268;2022-10-30T07:31:31;101696.31;;;18.85;100.00
33404;BME280;19751;40.274;18.268;2022-10-30T07:33:57;101708.69;;;18.87;100.00
33404;BME280;19751;40.274;18.268;2022-10-30T07:36:23;101706.13;;;18.93;100.00
33404;BME280;19751;40.274;18.268;2022-10-30T07:38:49;101712.41;;;18.93;100.00
33404;BME280;19751;40.274;18.268;2022-10-30T07:41:17;101711.41;;;18.87;100.00
33404;BME280;19751;40.274;18.268;2022-10-30T07:43:42;101701.72;;;18.92;100.00
33404;BME280;19751;40.274;18.268;2022-10-30T07:46:08;101692.88;;;18.96;100.00
33404;BME280;19751;40.274;18.268;2022-10-30T07:48:33;101701.00;;;19.03;100.00
33404;BME280;19751;40.274;18.268;2022-10-30T07:50:59;101715.00;;;19.13;100.00
33404;BME280;19751;40.274;18.268;2022-10-30T07:53:24;101707.63;;;19.13;100.00
33404;BME280;19751;40.274;18.268;2022-10-30T07:55:50;101709.94;;;19.17;100.00
33404;BME280;19751;40.274;18.268;2022-10-30T07:58:15;101702.13;;;19.20;100.00
33404;BME280;19751;40.274;18.268;2022-10-30T08:00:41;101687.16;;;19.23;100.00
33404;BME280;19751;40.274;18.268;2022-10-30T08:03:08;101699.75;;;19.24;100.00
33404;BME280;19751;40.274;18.268;2022-10-30T08:05:33;101699.16;;;19.22;100.00
33404;BME280;19751;40.274;18.268;2022-10-30T08:07:59;101700.22;;;19.21;100.00
33404;BME280;19751;40.274;18.268;2022-10-30T08:10:25;101707.97;;;19.24;100.00
33404;BME280;19751;40.274;18.268;2022-10-30T08:12:50;101703.34;;;19.24;100.00
33404;BME280;19751;40.274;18.268;2022-10-30T08:15:16;101703.94;;;19.26;100.00
33404;BME280;19751;40.274;18.268;2022-10-30T08:17:46;101712.53;;;19.30;100.00
33404;BME280;19751;40.274;18.268;2022-10-30T08:20:14;101696.34;;;19.28;100.00
33404;BME280;19751;40.274;18.268;2022-10-30T08:22:58;101702.88;;;19.27;100.00
33404;BME280;19751;40.274;18.268;2022-10-30T08:25:26;101691.53;;;19.30;100.00
33404;BME280;19751;40.274;18.268;2022-10-30T08:27:54;101702.44;;;19.30;100.00
33404;BME280;19751;40.274;18.268;2022-10-30T08:30:21;101695.53;;;19.28;100.00
33404;BME280;19751;40.274;18.268;2022-10-30T08:32:47;101703.94;;;19.26;100.00
33404;BME280;19751;40.274;18.268;2022-10-30T08:35:13;101705.41;;;19.29;100.00
33404;BME280;19751;40.274;18.268;2022-10-30T08:37:38;101701.53;;;19.36;100.00
33404;BME280;19751;40.274;18.268;2022-10-30T08:40:04;101713.88;;;19.46;100.00
33404;BME280;19751;40.274;18.268;2022-10-30T08:42:30;101714.63;;;19.53;100.00
33404;BME280;19751;40.274;18.268;2022-10-30T08:44:55;101708.78;;;19.49;100.00
33404;BME280;19751;40.274;18.268;2022-10-30T08:47:21;101704.38;;;19.48;100.00
33404;BME280;19751;40.274;18.268;2022-10-30T08:49:46;101710.06;;;19.47;100.00
33404;BME280;19751;40.274;18.268;2022-10-30T08:52:12;101704.84;;;19.45;100.00
33404;BME280;19751;40.274;18.268;2022-10-30T08:54:37;101702.56;;;19.42;100.00
33404;BME280;19751;40.274;18.268;2022-10-30T08:57:03;101701.94;;;19.40;100.00
33404;BME280;19751;40.274;18.268;2022-10-30T08:59:28;101696.25;;;19.42;100.00
33404;BME280;19751;40.274;18.268;2022-10-30T09:01:54;101709.69;;;19.43;100.00
33404;BME280;19751;40.274;18.268;2022-10-30T09:04:20;101704.84;;;19.45;100.00
33404;BME280;19751;40.274;18.268;2022-10-30T09:06:45;101704.84;;;19.45;100.00
33404;BME280;19751;40.274;18.268;2022-10-30T09:09:11;101715.09;;;19.50;100.00
33404;BME280;19751;40.274;18.268;2022-10-30T09:11:38;101703.94;;;19.51;100.00
33404;BME280;19751;40.274;18.268;2022-10-30T09:14:03;101720.09;;;19.53;100.00
33404;BME280;19751;40.274;18.268;2022-10-30T09:16:29;101708.13;;;19.54;100.00
33404;BME280;19751;40.274;18.268;2022-10-30T09:18:54;101703.88;;;19.58;100.00
33404;BME280;19751;40.274;18.268;2022-10-30T09:21:20;101717.31;;;19.59;100.00
33404;BME280;19751;40.274;18.268;2022-10-30T09:23:45;101707.44;;;19.58;100.00
33404;BME280;19751;40.274;18.268;2022-10-30T09:26:11;101701.72;;;19.60;100.00
33404;BME280;19751;40.274;18.268;2022-10-30T09:28:36;101698.78;;;19.61;100.00
33404;BME280;19751;40.274;18.268;2022-10-30T09:31:02;101702.16;;;19.64;100.00
33404;BME280;19751;40.274;18.268;2022-10-30T09:33:28;101702.31;;;19.69;100.00
33404;BME280;19751;40.274;18.268;2022-10-30T09:35:54;101715.28;;;19.73;100.00
33404;BME280;19751;40.274;18.268;2022-10-30T09:38:19;101704.16;;;19.75;100.00
33404;BME280;19751;40.274;18.268;2022-10-30T09:43:55;101693.59;;;19.78;100.00
33404;BME280;19751;40.274;18.268;2022-10-30T09:46:38;101695.25;;;19.79;100.00
33404;BME280;19751;40.274;18.268;2022-10-30T09:52:05;101687.25;;;19.78;100.00
33404;BME280;19751;40.274;18.268;2022-10-30T09:55:05;101681.16;;;19.82;100.00
33404;BME280;19751;40.274;18.268;2022-10-30T10:00:08;101688.41;;;19.89;100.00
33404;BME280;19751;40.274;18.268;2022-10-30T10:02:50;101688.81;;;19.92;100.00
33404;BME280;19751;40.274;18.268;2022-10-30T10:05:27;101683.09;;;19.94;100.00
33404;BME280;19751;40.274;18.268;2022-10-30T10:08:04;101679.91;;;19.97;100.00
33404;BME280;19751;40.274;18.268;2022-10-30T10:10:37;101676.09;;;19.98;100.00
33404;BME280;19751;40.274;18.268;2022-10-30T10:13:04;101678.63;;;19.99;100.00
33404;BME280;19751;40.274;18.268;2022-10-30T10:18:38;101675.41;;;20.02;100.00
33404;BME280;19751;40.274;18.268;2022-10-30T10:21:17;101678.38;;;20.01;100.00
33404;BME280;19751;40.274;18.268;2022-10-30T10:23:50;101664.72;;;20.01;100.00
33404;BME280;19751;40.274;18.268;2022-10-30T10:26:29;101667.44;;;20.01;100.00
33404;BME280;19751;40.274;18.268;2022-10-30T10:42:27;101653.22;;;20.10;100.00
33404;BME280;19751;40.274;18.268;2022-10-30T10:50:47;101647.66;;;20.17;100.00
33404;BME280;19751;40.274;18.268;2022-10-30T10:53:21;101645.19;;;20.16;100.00
33404;BME280;19751;40.274;18.268;2022-10-30T10:55:52;101651.25;;;20.18;100.00
33404;BME280;19751;40.274;18.268;2022-10-30T11:01:35;101643.88;;;20.18;100.00
33404;BME280;19751;40.274;18.268;2022-10-30T11:04:04;101648.88;;;20.21;100.00
33404;BME280;19751;40.274;18.268;2022-10-30T11:06:37;101637.25;;;20.26;100.00
33404;BME280;19751;40.274;18.268;2022-10-30T11:09:18;101636.41;;;20.25;100.00
33404;BME280;19751;40.274;18.268;2022-10-30T11:11:45;101637.47;;;20.24;100.00
33404;BME280;19751;40.274;18.268;2022-10-30T11:19:36;101613.91;;;20.23;100.00
33404;BME280;19751;40.274;18.268;2022-10-30T11:22:03;101630.69;;;20.27;100.00
33404;BME280;19751;40.274;18.268;2022-10-30T11:24:36;101623.09;;;20.29;100.00
33404;BME280;19751;40.274;18.268;2022-10-30T11:27:25;101618.00;;;20.32;100.00
33404;BME280;19751;40.274;18.268;2022-10-30T11:32:19;101611.47;;;20.33;100.00
33404;BME280;19751;40.274;18.268;2022-10-30T11:35:12;101613.13;;;20.34;100.00
33404;BME280;19751;40.274;18.268;2022-10-30T11:37:40;101608.47;;;20.35;100.00
33404;BME280;19751;40.274;18.268;2022-10-30T11:42:37;101610.63;;;20.33;100.00
33404;BME280;19751;40.274;18.268;2022-10-30T11:45:04;101610.84;;;20.31;100.00
33404;BME280;19751;40.274;18.268;2022-10-30T11:47:38;101616.09;;;20.33;100.00
33404;BME280;19751;40.274;18.268;2022-10-30T11:50:12;101604.31;;;20.32;100.00
33404;BME280;19751;40.274;18.268;2022-10-30T11:52:41;101602.41;;;20.33;100.00
33404;BME280;19751;40.274;18.268;2022-10-30T11:55:34;101598.69;;;20.27;100.00
33404;BME280;19751;40.274;18.268;2022-10-30T11:58:04;101593.22;;;20.27;100.00
33404;BME280;19751;40.274;18.268;2022-10-30T12:00:33;101590.72;;;20.26;100.00
33404;BME280;19751;40.274;18.268;2022-10-30T12:03:00;101585.03;;;20.27;100.00
33404;BME280;19751;40.274;18.268;2022-10-30T12:08:14;101603.72;;;20.30;99.85
33404;BME280;19751;40.274;18.268;2022-10-30T12:11:00;101598.25;;;20.30;100.00
33404;BME280;19751;40.274;18.268;2022-10-30T12:13:35;101592.75;;;20.30;100.00
33404;BME280;19751;40.274;18.268;2022-10-30T12:16:07;101590.03;;;20.30;100.00
33404;BME280;19751;40.274;18.268;2022-10-30T12:18:34;101582.44;;;20.32;100.00
33404;BME280;19751;40.274;18.268;2022-10-30T12:21:00;101580.53;;;20.33;100.00
33404;BME280;19751;40.274;18.268;2022-10-30T12:23:27;101592.31;;;20.33;100.00
33404;BME280;19751;40.274;18.268;2022-10-30T12:26:09;101585.75;;;20.34;100.00
33404;BME280;19751;40.274;18.268;2022-10-30T12:28:35;101583.84;;;20.35;100.00
33404;BME280;19751;40.274;18.268;2022-10-30T12:31:16;101578.38;;;20.35;100.00
33404;BME280;19751;40.274;18.268;2022-10-30T12:34:03;101577.09;;;20.38;99.30
33404;BME280;19751;40.274;18.268;2022-10-30T12:36:36;101580.41;;;20.40;99.42
33404;BME280;19751;40.274;18.268;2022-10-30T12:39:14;101572.69;;;20.36;100.00
33404;BME280;19751;40.274;18.268;2022-10-30T12:41:45;101568.28;;;20.35;100.00
33404;BME280;19751;40.274;18.268;2022-10-30T12:44:26;101569.97;;;20.36;100.00
33404;BME280;19751;40.274;18.268;2022-10-30T12:49:39;101568.28;;;20.35;100.00
33404;BME280;19751;40.274;18.268;2022-10-30T12:57:29;101571.16;;;20.41;100.00
33404;BME280;19751;40.274;18.268;2022-10-30T12:59:57;101574.72;;;20.41;100.00
33404;BME280;19751;40.274;18.268;2022-10-30T13:02:27;101568.44;;;20.41;100.00
33404;BME280;19751;40.274;18.268;2022-10-30T13:05:00;101578.50;;;20.40;100.00
33404;BME280;19751;40.274;18.268;2022-10-30T13:10:31;101576.47;;;20.35;100.00
33404;BME280;19751;40.274;18.268;2022-10-30T13:13:14;101572.69;;;20.36;100.00
33404;BME280;19751;40.274;18.268;2022-10-30T13:15:46;101564.25;;;20.38;100.00
33404;BME280;19751;40.274;18.268;2022-10-30T13:18:23;101573.91;;;20.41;100.00
33404;BME280;19751;40.274;18.268;2022-10-30T13:23:57;101578.88;;;20.44;98.86
33404;BME280;19751;40.274;18.268;2022-10-30T13:26:54;101576.50;;;20.47;98.60
33404;BME280;19751;40.274;18.268;2022-10-30T13:35:26;101576.31;;;20.60;100.00
33404;BME280;19751;40.274;18.268;2022-10-30T13:40:35;101576.47;;;20.77;100.00
33404;BME280;19751;40.274;18.268;2022-10-30T13:43:27;101577.66;;;20.81;100.00
33404;BME280;19751;40.274;18.268;2022-10-30T13:46:15;101573.88;;;20.82;97.81
33404;BME280;19751;40.274;18.268;2022-10-30T13:54:29;101575.03;;;20.75;99.36
33404;BME280;19751;40.274;18.268;2022-10-30T13:56:57;101573.97;;;20.76;100.00
33404;BME280;19751;40.274;18.268;2022-10-30T14:02:30;101575.75;;;20.70;92.38
33404;BME280;19751;40.274;18.268;2022-10-30T14:13:28;101566.94;;;20.68;94.51
33404;BME280;19751;40.274;18.268;2022-10-30T14:16:04;101571.56;;;20.68;95.00
33404;BME280;19751;40.274;18.268;2022-10-30T14:19:01;101564.91;;;20.64;94.69
33404;BME280;19751;40.274;18.268;2022-10-30T14:21:40;101571.34;;;20.57;94.94
33404;BME280;19751;40.274;18.268;2022-10-30T14:24:13;101571.88;;;20.48;94.39
33404;BME280;19751;40.274;18.268;2022-10-30T14:29:39;101567.22;;;20.36;96.41